Terminal Aerodrome Forecast
Issued by NWS Pocatello, ID

Home | Current Version | Previous Version | Text Only | Print | Product List | Glossary On
Versions: 1 2 3 4 5 6 7 8 9 10 11 12
100
FTUS45 KPIH 182321
TAFPIH
TAF
KPIH 182321Z 1900/1924 23008KT P6SM FEW200
     FM190300 18006KT P6SM SKC
     FM192000 19012G25KT P6SM FEW200=

USA.gov is the U.S. government's official web portal to all federal, state and local government web resources and services.